createdAt,value
2022-12-23T00:02:42.299Z,3.53
2022-12-23T00:07:47.743Z,5.15
2022-12-23T00:13:08.878Z,4.78
2022-12-23T00:18:14.313Z,9.35
2022-12-23T00:23:19.638Z,1.10
2022-12-23T00:28:25.744Z,1.95
2022-12-23T00:33:31.345Z,4.53
2022-12-23T00:38:54.110Z,1.40
2022-12-23T00:43:58.908Z,4.30
2022-12-23T00:49:19.634Z,5.60
2022-12-23T00:54:25.127Z,4.88
2022-12-23T00:59:29.111Z,7.47
2022-12-23T01:04:50.860Z,2.63
2022-12-23T01:09:56.256Z,5.00
2022-12-23T01:15:00.152Z,10.07
2022-12-23T01:20:04.332Z,6.30
2022-12-23T01:25:10.722Z,5.93
2022-12-23T01:30:15.047Z,6.27
2022-12-23T01:35:19.246Z,6.75
2022-12-23T01:40:24.591Z,3.25
2022-12-23T01:45:30.513Z,8.55
2022-12-23T01:50:39.234Z,8.15
2022-12-23T01:55:49.181Z,5.72
2022-12-23T02:01:12.373Z,8.77
2022-12-23T02:06:39.440Z,9.55
2022-12-23T02:17:16.611Z,4.53
2022-12-23T02:22:42.590Z,4.35
2022-12-23T02:28:01.670Z,10.52
2022-12-23T02:33:29.259Z,2.60
2022-12-23T02:38:38.992Z,8.60
2022-12-23T02:43:46.479Z,9.05
2022-12-23T02:48:58.005Z,7.18
2022-12-23T02:54:05.295Z,3.83
2022-12-23T02:59:14.225Z,4.97
2022-12-23T03:04:19.724Z,5.68
2022-12-23T03:09:31.467Z,1.73
2022-12-23T03:14:49.856Z,0.90
2022-12-23T03:20:02.161Z,9.63
2022-12-23T03:25:14.592Z,4.93
2022-12-23T03:30:21.249Z,6.03
2022-12-23T03:35:35.184Z,4.10
2022-12-23T03:40:43.026Z,8.05
2022-12-23T03:45:52.036Z,5.78
2022-12-23T03:51:02.478Z,6.32
2022-12-23T03:56:10.398Z,7.95
2022-12-23T04:01:20.664Z,16.48
2022-12-23T04:06:29.809Z,7.30
2022-12-23T04:11:35.376Z,4.57
2022-12-23T04:16:39.651Z,20.77
2022-12-23T04:21:45.034Z,4.82
2022-12-23T04:26:49.005Z,6.25
2022-12-23T04:31:53.029Z,6.35
2022-12-23T04:36:58.440Z,11.15
2022-12-23T04:42:02.392Z,8.45
2022-12-23T04:47:06.420Z,24.40
2022-12-23T04:52:11.776Z,19.42
2022-12-23T04:57:16.753Z,11.70
2022-12-23T05:02:20.815Z,6.45
2022-12-23T05:07:26.291Z,4.95
2022-12-23T05:12:30.943Z,28.33
2022-12-23T05:17:35.215Z,11.32
2022-12-23T05:22:40.713Z,12.07
2022-12-23T05:27:44.909Z,11.50
2022-12-23T05:32:48.959Z,7.78
2022-12-23T05:37:54.727Z,5.32
2022-12-23T05:42:58.866Z,8.63
2022-12-23T05:48:03.091Z,15.25
2022-12-23T05:53:09.187Z,17.98
2022-12-23T05:58:13.313Z,14.05
2022-12-23T06:03:17.771Z,17.33
2022-12-23T06:08:23.401Z,19.63
2022-12-23T06:13:27.511Z,10.40
2022-12-23T06:18:31.471Z,4.55
2022-12-23T06:23:37.013Z,7.55
2022-12-23T06:28:41.293Z,8.45
2022-12-23T06:33:45.515Z,14.98
2022-12-23T06:38:50.895Z,7.47
2022-12-23T06:43:54.842Z,7.45
2022-12-23T06:48:58.811Z,14.45
2022-12-23T06:54:04.331Z,7.35
2022-12-23T06:59:08.283Z,22.98
2022-12-23T07:04:12.525Z,6.13
2022-12-23T07:09:17.965Z,8.80
2022-12-23T07:14:21.936Z,4.57
2022-12-23T07:19:26.723Z,9.88
2022-12-23T07:24:32.114Z,28.50
2022-12-23T07:29:36.072Z,10.50
2022-12-23T07:34:40.007Z,17.33
2022-12-23T07:39:45.313Z,8.77
2022-12-23T07:44:49.402Z,7.60
2022-12-23T07:49:53.431Z,5.88
2022-12-23T07:54:58.679Z,6.85
2022-12-23T08:00:02.808Z,11.85
2022-12-23T08:05:16.809Z,11.93
2022-12-23T08:10:22.601Z,8.10
2022-12-23T08:15:26.849Z,10.02
2022-12-23T08:20:30.845Z,11.85
2022-12-23T08:25:36.346Z,6.78
2022-12-23T08:30:40.322Z,11.18
2022-12-23T08:35:44.278Z,4.10
2022-12-23T08:40:49.628Z,7.65
2022-12-23T08:45:54.094Z,16.20
2022-12-23T08:51:00.207Z,16.02
2022-12-23T08:56:06.905Z,28.27
2022-12-23T09:01:13.313Z,35.60
2022-12-23T09:06:26.482Z,27.58
2022-12-23T09:11:35.737Z,37.90
2022-12-23T09:16:40.272Z,22.90
2022-12-23T09:21:44.255Z,13.43
2022-12-23T09:26:52.166Z,21.30
2022-12-23T09:31:56.186Z,20.08
2022-12-23T09:37:01.423Z,28.90
2022-12-23T09:42:26.263Z,27.80
2022-12-23T09:47:38.594Z,23.45
2022-12-23T09:52:50.244Z,29.17
2022-12-23T09:58:03.903Z,18.33
2022-12-23T10:03:17.960Z,36.22
2022-12-23T10:08:29.768Z,79.95
2022-12-23T10:13:41.011Z,21.60
2022-12-23T10:18:52.739Z,27.23
2022-12-23T10:23:56.865Z,17.17
2022-12-23T10:29:18.262Z,22.42
2022-12-23T10:34:33.456Z,20.30
2022-12-23T10:39:52.072Z,15.68
2022-12-23T10:45:21.984Z,25.25
2022-12-23T10:50:40.510Z,28.80
2022-12-23T10:55:46.781Z,19.65
2022-12-23T11:00:55.262Z,21.73
2022-12-23T11:06:00.940Z,34.53
2022-12-23T11:11:05.292Z,26.08
2022-12-23T11:16:24.365Z,41.80
2022-12-23T11:21:30.344Z,26.75
2022-12-23T11:26:34.968Z,25.65
2022-12-23T11:31:43.581Z,39.38
2022-12-23T11:36:56.501Z,51.00
2022-12-23T11:42:08.420Z,44.53
2022-12-23T11:47:30.988Z,28.42
2022-12-23T11:52:35.294Z,32.83
2022-12-23T11:57:42.138Z,29.77
2022-12-23T12:02:50.227Z,34.03
2022-12-23T12:07:59.512Z,24.92
2022-12-23T12:13:06.644Z,18.75
2022-12-23T12:18:18.125Z,17.05
2022-12-23T12:23:28.406Z,24.30
2022-12-23T12:28:48.246Z,11.98
2022-12-23T12:33:58.657Z,12.43
2022-12-23T12:39:02.729Z,16.63
2022-12-23T12:44:31.754Z,53.08
2022-12-23T12:49:42.279Z,20.42
2022-12-23T12:54:54.010Z,11.77
2022-12-23T13:00:06.380Z,11.55
2022-12-23T13:05:22.447Z,21.25
2022-12-23T13:10:38.262Z,29.08
2022-12-23T13:15:51.767Z,9.95
2022-12-23T13:21:03.592Z,26.30
2022-12-23T13:26:19.686Z,21.15
2022-12-23T13:31:43.417Z,17.92
2022-12-23T13:36:57.189Z,17.63
2022-12-23T13:42:06.086Z,23.95
2022-12-23T13:47:20.295Z,20.92
2022-12-23T13:52:39.514Z,17.67
2022-12-23T13:57:54.772Z,60.65
2022-12-23T14:03:20.224Z,21.67
2022-12-23T14:08:34.384Z,28.60
2022-12-23T14:13:43.627Z,23.25
2022-12-23T14:19:08.311Z,26.55
2022-12-23T14:24:38.075Z,17.40
2022-12-23T14:29:55.592Z,23.85
2022-12-23T14:35:28.003Z,33.75
2022-12-23T14:40:53.157Z,27.48
2022-12-23T14:45:58.704Z,25.45
2022-12-23T14:51:28.005Z,36.40
2022-12-23T14:56:47.134Z,27.48
2022-12-23T15:01:54.100Z,13.00
2022-12-23T15:07:04.909Z,12.73
2022-12-23T15:12:16.186Z,18.30
2022-12-23T15:17:27.754Z,21.77
2022-12-23T15:22:33.653Z,15.98
2022-12-23T15:27:39.365Z,16.77
2022-12-23T15:32:47.937Z,10.32
2022-12-23T15:37:55.003Z,12.63
2022-12-23T15:42:59.349Z,7.75
2022-12-23T15:48:04.719Z,6.07
2022-12-23T15:53:11.572Z,10.00
2022-12-23T15:58:20.513Z,13.40
2022-12-23T16:03:29.110Z,2.45
2022-12-23T16:08:35.294Z,2.70
2022-12-23T16:13:44.933Z,3.20
2022-12-23T16:18:52.058Z,1.25
2022-12-23T16:23:59.348Z,6.70
2022-12-23T16:29:03.592Z,18.38
2022-12-23T16:34:09.103Z,6.13
2022-12-23T16:39:20.292Z,3.85
2022-12-23T16:44:24.301Z,5.50
2022-12-23T16:49:33.962Z,9.75
2022-12-23T16:54:39.761Z,13.73
2022-12-23T16:59:44.066Z,5.85
2022-12-23T17:04:48.031Z,7.53
2022-12-23T17:09:53.542Z,10.80
2022-12-23T17:14:57.611Z,6.93
2022-12-23T17:20:01.651Z,18.80
2022-12-23T17:25:07.604Z,24.17
2022-12-23T17:30:15.995Z,6.00
2022-12-23T17:35:20.966Z,3.75
2022-12-23T17:40:26.300Z,2.97
2022-12-23T17:45:31.178Z,10.82
2022-12-23T17:50:36.399Z,6.30
2022-12-23T17:55:42.625Z,16.70
2022-12-23T18:00:47.022Z,34.88
2022-12-23T18:05:59.141Z,17.65
2022-12-23T18:11:08.196Z,8.63
2022-12-23T18:16:13.683Z,12.50
2022-12-23T18:21:22.102Z,12.77
2022-12-23T18:26:32.192Z,4.93
2022-12-23T18:31:38.678Z,3.15
2022-12-23T18:36:42.908Z,18.97
2022-12-23T18:41:48.614Z,9.30
2022-12-23T18:46:52.633Z,7.75
2022-12-23T18:51:56.685Z,5.10
2022-12-23T18:57:02.690Z,10.48
2022-12-23T19:02:08.131Z,15.07
2022-12-23T19:07:12.693Z,8.73
2022-12-23T19:12:19.426Z,13.60
2022-12-23T19:17:23.473Z,9.57
2022-12-23T19:22:27.525Z,13.23
2022-12-23T19:27:32.945Z,11.27
2022-12-23T19:32:39.317Z,8.70
2022-12-23T19:37:44.069Z,8.15
2022-12-23T19:42:52.630Z,36.30
2022-12-23T19:47:56.642Z,6.80
2022-12-23T19:53:01.776Z,15.60
2022-12-23T19:58:07.223Z,10.00
2022-12-23T20:03:11.439Z,6.47
2022-12-23T20:08:17.404Z,3.80
2022-12-23T20:13:22.988Z,10.60
2022-12-23T20:18:27.484Z,4.40
2022-12-23T20:23:32.652Z,8.82
2022-12-23T20:28:38.399Z,9.57
2022-12-23T20:33:42.799Z,12.02
2022-12-23T20:38:48.023Z,4.20
2022-12-23T20:44:31.677Z,10.35
2022-12-23T20:49:17.917Z,7.55
2022-12-23T20:54:26.312Z,16.33
2022-12-23T20:59:35.591Z,16.10
2022-12-23T21:04:39.622Z,6.68
2022-12-23T21:09:46.661Z,10.40
2022-12-23T21:14:52.030Z,4.45
2022-12-23T21:19:57.433Z,6.35
2022-12-23T21:25:02.303Z,7.40
2022-12-23T21:30:09.764Z,4.88
2022-12-23T21:40:17.557Z,2.38
2022-12-23T21:45:25.012Z,1.92
2022-12-23T21:50:29.941Z,3.22
2022-12-23T21:55:36.048Z,6.25
2022-12-23T22:00:41.519Z,12.90
2022-12-23T22:05:45.438Z,6.28
2022-12-23T22:10:49.411Z,4.00
2022-12-23T22:15:54.879Z,3.38
2022-12-23T22:20:59.012Z,7.13
2022-12-23T22:26:02.962Z,4.70
2022-12-23T22:31:16.769Z,2.00
2022-12-23T22:36:20.863Z,2.75
2022-12-23T22:41:27.834Z,3.08
2022-12-23T22:46:33.145Z,3.17
2022-12-23T22:51:37.271Z,2.17
2022-12-23T22:56:41.359Z,4.07
2022-12-23T23:01:46.831Z,7.47
2022-12-23T23:06:50.855Z,3.08
2022-12-23T23:11:55.038Z,3.75
2022-12-23T23:17:00.481Z,3.45
2022-12-23T23:22:04.547Z,3.63
2022-12-23T23:27:08.480Z,3.50
2022-12-23T23:32:14.021Z,6.15
2022-12-23T23:37:18.092Z,3.95
2022-12-23T23:42:22.247Z,5.63
2022-12-23T23:47:27.744Z,3.55
2022-12-23T23:52:31.801Z,6.18
2022-12-23T23:57:35.872Z,5.85
